Time;durP1;ratioP1;P1;durP2;ratioP2;P2;SDS_P1;SDS_P2;PMS_P1;PMS_P2;Temp;Humidity;BMP_temperature;BMP_pressure;BME280_temperature;BME280_humidity;BME280_pressure;Samples;Min_cycle;Max_cycle;Signal;HPM_P1;HPM_P2
2021/11/08 00:01:11;;;;;;;7.13;3.45;;;;;;;;;;5053042;28;20033;-57
2021/11/08 00:03:41;;;;;;;9.55;4.68;;;;;;;;;;5040101;28;20030;-57
2021/11/08 00:06:07;;;;;;;11.30;4.53;;;;;;;;;;5032946;28;20053;-57
2021/11/08 00:08:34;;;;;;;6.70;4.25;;;;;;;;;;5033077;28;20083;-57
2021/11/08 00:11:00;;;;;;;8.90;4.07;;;;;;;;;;5032970;28;20038;-57
2021/11/08 00:13:26;;;;;;;10.82;4.63;;;;;;;;;;5033100;28;20036;-57
2021/11/08 00:21:00;;;;;;;6.95;4.85;;;;;;;;;;5032957;28;20040;-58
2021/11/08 00:23:28;;;;;;;8.32;4.55;;;;;;;;;;5032481;28;20032;-58
2021/11/08 00:25:54;;;;;;;6.45;3.85;;;;;;;;;;5032389;28;20037;-57
2021/11/08 00:28:21;;;;;;;10.57;4.53;;;;;;;;;;5032260;28;20033;-57
2021/11/08 00:30:48;;;;;;;11.90;5.40;;;;;;;;;;5032768;28;20120;-57
2021/11/08 00:33:15;;;;;;;7.38;4.60;;;;;;;;;;5032423;28;20033;-57
2021/11/08 00:35:41;;;;;;;9.45;5.07;;;;;;;;;;5032646;28;20060;-57
2021/11/08 00:38:07;;;;;;;8.63;5.80;;;;;;;;;;5031813;28;20032;-58
2021/11/08 00:40:34;;;;;;;12.73;5.07;;;;;;;;;;5032149;28;20029;-57
2021/11/08 00:43:00;;;;;;;8.27;4.88;;;;;;;;;;5032272;28;20025;-58
2021/11/08 00:45:26;;;;;;;7.57;4.22;;;;;;;;;;5032439;28;20049;-58
2021/11/08 00:47:52;;;;;;;8.38;4.47;;;;;;;;;;5031584;28;20356;-57
2021/11/08 00:50:18;;;;;;;8.30;4.20;;;;;;;;;;5032230;28;20527;-57
2021/11/08 00:52:45;;;;;;;7.18;4.50;;;;;;;;;;5032144;28;20025;-57
2021/11/08 00:55:11;;;;;;;11.13;3.63;;;;;;;;;;5032079;28;20132;-57
2021/11/08 00:57:39;;;;;;;8.73;4.13;;;;;;;;;;5031449;28;20069;-57
2021/11/08 01:00:06;;;;;;;6.18;3.95;;;;;;;;;;5063717;28;20462;-57
2021/11/08 01:02:32;;;;;;;8.80;3.88;;;;;;;;;;5034648;28;20083;-57
2021/11/08 01:05:00;;;;;;;6.40;4.07;;;;;;;;;;5052036;28;20028;-57
2021/11/08 01:07:27;;;;;;;6.38;3.80;;;;;;;;;;5051193;28;20116;-57
2021/11/08 01:09:53;;;;;;;6.38;3.75;;;;;;;;;;5051802;28;20064;-57
2021/11/08 01:12:20;;;;;;;9.27;5.15;;;;;;;;;;5051832;28;20059;-57
2021/11/08 01:14:46;;;;;;;8.63;4.35;;;;;;;;;;5052110;28;20032;-57
2021/11/08 01:17:13;;;;;;;6.38;3.55;;;;;;;;;;5051030;28;20021;-57
2021/11/08 01:19:40;;;;;;;12.85;5.30;;;;;;;;;;5051960;28;20037;-57
2021/11/08 01:22:14;;;;;;;8.77;3.70;;;;;;;;;;5051570;28;20394;-57
2021/11/08 01:24:40;;;;;;;8.60;4.20;;;;;;;;;;5052243;28;20017;-57
2021/11/08 01:27:07;;;;;;;7.53;4.38;;;;;;;;;;5051217;28;20394;-57
2021/11/08 01:29:33;;;;;;;12.57;4.20;;;;;;;;;;5051552;28;20021;-57
2021/11/08 01:32:00;;;;;;;4.70;3.88;;;;;;;;;;5051438;28;20029;-57
2021/11/08 01:34:27;;;;;;;6.93;3.40;;;;;;;;;;5051715;28;20024;-57
2021/11/08 01:36:54;;;;;;;7.38;5.10;;;;;;;;;;5051262;28;20033;-57
2021/11/08 01:39:25;;;;;;;5.32;3.40;;;;;;;;;;5051763;28;20071;-58
2021/11/08 01:41:51;;;;;;;5.35;3.58;;;;;;;;;;5051914;28;20471;-57
2021/11/08 01:44:17;;;;;;;7.30;4.15;;;;;;;;;;5051659;28;20044;-57
2021/11/08 01:46:44;;;;;;;7.35;3.58;;;;;;;;;;5050801;28;20132;-57
2021/11/08 01:49:10;;;;;;;7.30;3.67;;;;;;;;;;5051286;28;20127;-57
2021/11/08 01:51:37;;;;;;;5.28;3.17;;;;;;;;;;5051747;28;20029;-57
2021/11/08 01:54:07;;;;;;;6.55;3.47;;;;;;;;;;5051665;28;20025;-57
2021/11/08 01:56:35;;;;;;;6.22;3.95;;;;;;;;;;5051334;28;20029;-57
2021/11/08 01:59:01;;;;;;;9.77;3.20;;;;;;;;;;5051440;28;20455;-57
2021/11/08 02:01:27;;;;;;;5.53;3.85;;;;;;;;;;5051569;28;20025;-57
2021/11/08 02:03:53;;;;;;;5.05;3.72;;;;;;;;;;5050948;28;20056;-57
2021/11/08 02:06:20;;;;;;;11.27;4.60;;;;;;;;;;5050859;28;20178;-57
2021/11/08 02:08:46;;;;;;;4.32;3.50;;;;;;;;;;5051613;28;20021;-57
2021/11/08 02:11:12;;;;;;;8.57;4.60;;;;;;;;;;5051329;28;20081;-58
2021/11/08 02:13:39;;;;;;;7.00;4.40;;;;;;;;;;5052168;28;20471;-58
2021/11/08 02:16:07;;;;;;;7.25;4.70;;;;;;;;;;5054997;28;20021;-58
2021/11/08 02:18:34;;;;;;;6.38;4.45;;;;;;;;;;5054290;28;20025;-58
2021/11/08 02:21:02;;;;;;;4.63;3.95;;;;;;;;;;5055065;28;20052;-58
2021/11/08 02:23:28;;;;;;;4.57;3.85;;;;;;;;;;5054750;28;20055;-57
2021/11/08 02:25:59;;;;;;;6.80;4.20;;;;;;;;;;5054672;28;20056;-57
2021/11/08 02:28:25;;;;;;;7.50;4.45;;;;;;;;;;5054096;28;20025;-58
2021/11/08 02:30:55;;;;;;;7.05;3.58;;;;;;;;;;5054975;28;20040;-57
2021/11/08 02:33:22;;;;;;;9.23;4.68;;;;;;;;;;5054560;28;20083;-57
2021/11/08 02:35:48;;;;;;;7.05;4.25;;;;;;;;;;5054678;28;20454;-57
2021/11/08 02:38:20;;;;;;;8.02;4.15;;;;;;;;;;5053958;28;20057;-57
2021/11/08 02:40:47;;;;;;;6.07;4.07;;;;;;;;;;5054543;28;20470;-57
2021/11/08 02:43:20;;;;;;;7.38;4.43;;;;;;;;;;5054912;28;20025;-57
2021/11/08 02:45:47;;;;;;;6.93;3.72;;;;;;;;;;5054711;28;20056;-57
2021/11/08 02:48:14;;;;;;;6.35;3.97;;;;;;;;;;5053673;28;20108;-58
2021/11/08 02:50:40;;;;;;;15.93;5.55;;;;;;;;;;5054562;28;20033;-57
2021/11/08 02:53:11;;;;;;;8.50;4.20;;;;;;;;;;5054289;28;20391;-57
2021/11/08 02:55:37;;;;;;;6.70;4.60;;;;;;;;;;5054452;28;20025;-57
2021/11/08 02:58:03;;;;;;;8.88;3.92;;;;;;;;;;5053186;28;20074;-57
2021/11/08 03:00:30;;;;;;;5.68;3.85;;;;;;;;;;5054124;28;20025;-57
2021/11/08 03:02:57;;;;;;;6.10;3.83;;;;;;;;;;5054234;28;20140;-57
2021/11/08 03:05:32;;;;;;;7.30;4.80;;;;;;;;;;5054084;28;20212;-57
2021/11/08 03:07:58;;;;;;;4.95;3.72;;;;;;;;;;5053512;28;20123;-57
2021/11/08 03:10:26;;;;;;;5.57;3.83;;;;;;;;;;5053771;28;20494;-57
2021/11/08 03:12:54;;;;;;;9.82;4.88;;;;;;;;;;5054337;28;20056;-57
2021/11/08 03:15:33;;;;;;;7.63;4.22;;;;;;;;;;5053782;28;20463;-58
2021/11/08 03:18:06;;;;;;;5.72;3.83;;;;;;;;;;5053330;28;20089;-57
2021/11/08 03:20:32;;;;;;;7.55;4.70;;;;;;;;;;5053823;28;20036;-57
2021/11/08 03:23:02;;;;;;;5.20;4.47;;;;;;;;;;5053763;28;20414;-57
2021/11/08 03:27:58;;;;;;;5.05;3.72;;;;;;;;;;5053087;28;19966;-58
2021/11/08 03:30:27;;;;;;;7.30;4.38;;;;;;;;;;5053533;28;20052;-58
2021/11/08 03:32:54;;;;;;;6.95;5.00;;;;;;;;;;5053600;28;20095;-57
2021/11/08 03:35:22;;;;;;;9.02;4.35;;;;;;;;;;5053515;28;20051;-56
2021/11/08 03:37:49;;;;;;;5.70;4.28;;;;;;;;;;5053090;28;20036;-57
2021/11/08 03:40:23;;;;;;;8.15;4.30;;;;;;;;;;5053515;28;20033;-57
2021/11/08 03:42:51;;;;;;;7.25;4.60;;;;;;;;;;5053716;28;20348;-57
2021/11/08 03:45:18;;;;;;;5.40;4.13;;;;;;;;;;5053344;28;20032;-56
2021/11/08 03:47:44;;;;;;;6.75;4.45;;;;;;;;;;5052712;28;20025;-57
2021/11/08 03:50:10;;;;;;;6.78;4.45;;;;;;;;;;5052779;28;20033;-57
2021/11/08 03:52:38;;;;;;;5.82;4.00;;;;;;;;;;5053421;28;20029;-57
2021/11/08 03:55:04;;;;;;;10.13;3.85;;;;;;;;;;5053255;28;20033;-57
2021/11/08 03:57:30;;;;;;;6.82;3.80;;;;;;;;;;5052484;28;20475;-57
2021/11/08 03:59:56;;;;;;;5.82;3.83;;;;;;;;;;5053091;28;20036;-57
2021/11/08 04:02:23;;;;;;;5.35;4.35;;;;;;;;;;5053085;28;20025;-57
2021/11/08 04:04:49;;;;;;;9.05;4.25;;;;;;;;;;5052656;28;20425;-58
2021/11/08 04:07:15;;;;;;;12.18;4.88;;;;;;;;;;5052497;28;20059;-57
2021/11/08 04:09:41;;;;;;;8.00;4.55;;;;;;;;;;5052992;28;20033;-57
2021/11/08 04:12:08;;;;;;;7.78;4.75;;;;;;;;;;5053014;28;20052;-57
2021/11/08 04:14:36;;;;;;;5.38;3.78;;;;;;;;;;5052819;28;20078;-57
2021/11/08 04:17:03;;;;;;;7.97;4.47;;;;;;;;;;5052063;28;20383;-57
2021/11/08 04:19:30;;;;;;;5.75;4.05;;;;;;;;;;5052813;28;20036;-57
2021/11/08 04:22:01;;;;;;;5.32;3.20;;;;;;;;;;5052745;28;20056;-57
2021/11/08 04:24:28;;;;;;;4.05;3.40;;;;;;;;;;5052707;28;20033;-57
2021/11/08 04:26:54;;;;;;;7.47;4.07;;;;;;;;;;5052282;28;20033;-57
2021/11/08 04:29:22;;;;;;;8.00;4.38;;;;;;;;;;5052352;28;20389;-57
2021/11/08 04:31:48;;;;;;;5.25;3.65;;;;;;;;;;5046319;28;20036;-58
2021/11/08 04:34:29;;;;;;;9.18;4.45;;;;;;;;;;5051055;28;20372;-57
2021/11/08 04:40:01;;;;;;;6.10;3.40;;;;;;;;;;5051362;28;20624;-57
2021/11/08 05:27:54;;;;;;;8.38;4.90;;;;;;;;;;5054436;28;20053;-58
2021/11/08 05:30:21;;;;;;;8.50;5.10;;;;;;;;;;5051387;28;20051;-58
2021/11/08 05:32:52;;;;;;;7.45;5.10;;;;;;;;;;5051098;28;20033;-58
2021/11/08 05:35:18;;;;;;;5.97;4.82;;;;;;;;;;5051358;28;20033;-58
2021/11/08 05:37:45;;;;;;;5.20;4.38;;;;;;;;;;5050015;28;20040;-58
2021/11/08 05:40:27;;;;;;;7.28;5.68;;;;;;;;;;5051385;28;20140;-58
2021/11/08 05:42:53;;;;;;;8.50;5.45;;;;;;;;;;5051584;28;20033;-58
2021/11/08 05:45:19;;;;;;;11.20;5.43;;;;;;;;;;5049516;28;20090;-59
2021/11/08 05:47:45;;;;;;;7.78;4.15;;;;;;;;;;5050158;28;20052;-59
2021/11/08 05:50:13;;;;;;;10.88;6.45;;;;;;;;;;5054800;28;20378;-59
2021/11/08 05:52:39;;;;;;;8.98;5.28;;;;;;;;;;5055179;28;20028;-58
2021/11/08 05:55:09;;;;;;;11.23;6.60;;;;;;;;;;5054501;28;20024;-58
2021/11/08 05:57:50;;;;;;;11.32;5.13;;;;;;;;;;5044727;28;20040;-58
2021/11/08 06:49:45;;;;;;;9.30;4.28;;;;;;;;;;5054591;28;20044;-58
2021/11/08 06:52:13;;;;;;;8.48;5.72;;;;;;;;;;5054591;28;20021;-58
2021/11/08 06:54:40;;;;;;;8.63;5.45;;;;;;;;;;5054517;28;20083;-58
2021/11/08 06:57:12;;;;;;;7.90;4.20;;;;;;;;;;5053323;28;20056;-58
2021/11/08 06:59:38;;;;;;;7.45;4.25;;;;;;;;;;5054207;28;20037;-58
2021/11/08 07:02:04;;;;;;;7.05;4.00;;;;;;;;;;5054409;28;20025;-58
2021/11/08 07:04:30;;;;;;;6.97;3.88;;;;;;;;;;5054244;28;20033;-58
2021/11/08 07:06:56;;;;;;;14.68;5.00;;;;;;;;;;5053427;28;20029;-58
2021/11/08 07:09:22;;;;;;;5.78;4.43;;;;;;;;;;5054029;28;20123;-59
2021/11/08 07:11:48;;;;;;;7.70;4.18;;;;;;;;;;5053958;28;20025;-58
2021/11/08 07:14:15;;;;;;;9.82;5.32;;;;;;;;;;5053962;28;20032;-58
2021/11/08 07:16:44;;;;;;;13.75;4.88;;;;;;;;;;5053036;28;20021;-58
2021/11/08 07:19:10;;;;;;;17.30;5.78;;;;;;;;;;5051214;28;20063;-58
2021/11/08 07:21:37;;;;;;;19.55;7.20;;;;;;;;;;5052062;28;20036;-58
2021/11/08 07:24:03;;;;;;;23.08;7.65;;;;;;;;;;5052125;28;20063;-59
2021/11/08 07:26:29;;;;;;;11.23;5.03;;;;;;;;;;5050977;28;20033;-58
2021/11/08 07:28:55;;;;;;;26.85;8.90;;;;;;;;;;5052254;28;20025;-58
2021/11/08 07:31:21;;;;;;;13.23;6.93;;;;;;;;;;5053516;28;20040;-58
2021/11/08 07:33:47;;;;;;;20.98;7.30;;;;;;;;;;5053263;28;20021;-59
2021/11/08 07:36:13;;;;;;;15.60;6.32;;;;;;;;;;5053087;28;20044;-58
2021/11/08 07:38:39;;;;;;;12.52;4.93;;;;;;;;;;5053207;28;20032;-58
2021/11/08 07:41:07;;;;;;;13.73;5.60;;;;;;;;;;5053149;28;20029;-58
2021/11/08 07:43:34;;;;;;;6.35;5.07;;;;;;;;;;5053409;28;20378;-58
2021/11/08 07:46:00;;;;;;;6.18;4.13;;;;;;;;;;5053577;28;20033;-58
2021/11/08 07:48:26;;;;;;;13.43;5.80;;;;;;;;;;5052584;28;20025;-58
2021/11/08 07:50:52;;;;;;;12.50;5.60;;;;;;;;;;5053414;28;20132;-58
2021/11/08 07:53:18;;;;;;;7.72;4.60;;;;;;;;;;5053243;28;20111;-58
2021/11/08 07:55:45;;;;;;;9.00;3.83;;;;;;;;;;5052986;28;20064;-58
2021/11/08 07:58:11;;;;;;;10.13;4.80;;;;;;;;;;5052311;28;20395;-58
2021/11/08 08:00:38;;;;;;;10.65;4.28;;;;;;;;;;5053133;28;20045;-58
2021/11/08 08:03:05;;;;;;;10.13;6.43;;;;;;;;;;5052976;28;20017;-58
2021/11/08 08:05:31;;;;;;;11.52;6.57;;;;;;;;;;5052968;28;20059;-58
2021/11/08 08:07:57;;;;;;;17.88;8.57;;;;;;;;;;5052353;28;20033;-58
2021/11/08 08:10:23;;;;;;;18.60;8.68;;;;;;;;;;5052641;28;20036;-59
2021/11/08 08:12:49;;;;;;;12.00;6.85;;;;;;;;;;5052783;28;20035;-59
2021/11/08 08:15:16;;;;;;;10.57;6.85;;;;;;;;;;5052252;28;20021;-59
2021/11/08 08:17:42;;;;;;;10.32;5.65;;;;;;;;;;5052010;28;20040;-59
2021/11/08 08:20:10;;;;;;;12.48;5.35;;;;;;;;;;5052656;28;20094;-59
2021/11/08 08:22:36;;;;;;;10.75;5.63;;;;;;;;;;5052707;28;20459;-59
2021/11/08 08:25:02;;;;;;;12.63;6.10;;;;;;;;;;5052241;28;20029;-59
2021/11/08 08:27:28;;;;;;;9.00;5.70;;;;;;;;;;5051761;28;20140;-59
2021/11/08 08:29:54;;;;;;;13.98;5.60;;;;;;;;;;5052612;28;20115;-59
2021/11/08 08:32:20;;;;;;;11.77;5.55;;;;;;;;;;5052600;28;20155;-59
2021/11/08 08:34:46;;;;;;;11.43;4.97;;;;;;;;;;5051998;28;20036;-59
2021/11/08 08:37:12;;;;;;;13.65;5.03;;;;;;;;;;5052155;28;20370;-59
2021/11/08 08:39:39;;;;;;;8.63;4.20;;;;;;;;;;5052227;28;20032;-59
2021/11/08 08:42:05;;;;;;;9.45;4.35;;;;;;;;;;5052165;28;20028;-59
2021/11/08 08:44:31;;;;;;;12.38;4.70;;;;;;;;;;5052377;28;20475;-59
2021/11/08 08:46:57;;;;;;;8.30;4.40;;;;;;;;;;5051825;28;20028;-60
2021/11/08 08:49:24;;;;;;;7.05;4.15;;;;;;;;;;5052395;28;20033;-59
2021/11/08 08:51:50;;;;;;;7.75;4.00;;;;;;;;;;5052114;28;20025;-57
2021/11/08 08:54:16;;;;;;;11.68;4.50;;;;;;;;;;5051490;28;20340;-57
2021/11/08 08:56:42;;;;;;;9.20;4.43;;;;;;;;;;5051449;28;20029;-57
2021/11/08 08:59:08;;;;;;;7.45;3.75;;;;;;;;;;5052077;28;20036;-57
2021/11/08 09:01:34;;;;;;;11.20;3.85;;;;;;;;;;5052093;28;20028;-57
2021/11/08 09:04:00;;;;;;;20.45;4.63;;;;;;;;;;5052128;28;20033;-57
2021/11/08 09:06:27;;;;;;;16.50;4.97;;;;;;;;;;5051224;28;20029;-57
2021/11/08 09:08:54;;;;;;;10.57;3.67;;;;;;;;;;5052392;28;20343;-57
2021/11/08 09:11:20;;;;;;;7.63;4.45;;;;;;;;;;5051574;28;20044;-57
2021/11/08 09:13:46;;;;;;;9.00;5.72;;;;;;;;;;5051729;28;20029;-57
2021/11/08 09:16:12;;;;;;;7.53;5.28;;;;;;;;;;5051425;28;20021;-58
2021/11/08 09:18:48;;;;;;;8.85;4.63;;;;;;;;;;5051736;28;20025;-57
2021/11/08 09:21:14;;;;;;;9.60;5.80;;;;;;;;;;5051572;28;20048;-57
2021/11/08 09:23:41;;;;;;;12.77;5.18;;;;;;;;;;5033153;28;20493;-58
2021/11/08 09:26:07;;;;;;;11.38;4.57;;;;;;;;;;5047072;28;20567;-57
2021/11/08 09:28:33;;;;;;;12.05;4.20;;;;;;;;;;5055441;28;20094;-58
2021/11/08 09:30:59;;;;;;;6.43;4.40;;;;;;;;;;5055482;28;20037;-57
2021/11/08 09:33:25;;;;;;;14.80;6.57;;;;;;;;;;5063803;28;20097;-57
2021/11/08 09:35:57;;;;;;;12.70;6.13;;;;;;;;;;5055830;28;20033;-58
2021/11/08 09:38:24;;;;;;;14.05;7.22;;;;;;;;;;5055259;28;20383;-57
2021/11/08 09:40:50;;;;;;;19.52;6.45;;;;;;;;;;5055676;28;20045;-57
2021/11/08 09:43:19;;;;;;;9.63;6.35;;;;;;;;;;5055225;28;20497;-57
2021/11/08 09:45:45;;;;;;;19.23;11.07;;;;;;;;;;5055735;28;20128;-57
2021/11/08 09:48:11;;;;;;;10.75;7.15;;;;;;;;;;5055260;28;20067;-57
2021/11/08 09:50:38;;;;;;;17.58;8.27;;;;;;;;;;5055278;28;20094;-57
2021/11/08 09:53:05;;;;;;;13.35;7.90;;;;;;;;;;5055758;28;20056;-57
2021/11/08 09:55:31;;;;;;;13.93;7.32;;;;;;;;;;5055728;28;20033;-57
2021/11/08 09:57:57;;;;;;;10.18;6.18;;;;;;;;;;5054610;28;20022;-57
2021/11/08 10:00:28;;;;;;;17.15;6.15;;;;;;;;;;5055192;28;20456;-57
2021/11/08 10:02:56;;;;;;;9.85;6.10;;;;;;;;;;5055078;28;20032;-57
2021/11/08 10:05:24;;;;;;;14.25;6.05;;;;;;;;;;5055568;28;20025;-56
2021/11/08 10:07:51;;;;;;;10.18;7.90;;;;;;;;;;5054679;28;20104;-57
2021/11/08 10:10:17;;;;;;;10.57;7.13;;;;;;;;;;5055124;28;20475;-57
2021/11/08 10:12:43;;;;;;;15.90;7.60;;;;;;;;;;5055055;28;20048;-57
2021/11/08 10:15:09;;;;;;;10.05;7.32;;;;;;;;;;5055113;28;20127;-58
2021/11/08 10:17:35;;;;;;;10.70;6.32;;;;;;;;;;5054214;28;20083;-58
2021/11/08 10:20:01;;;;;;;8.95;4.68;;;;;;;;;;5054897;28;20033;-58
2021/11/08 10:22:30;;;;;;;15.77;7.95;;;;;;;;;;5055241;28;20094;-58
2021/11/08 10:24:57;;;;;;;13.27;6.38;;;;;;;;;;5054915;28;20029;-58
2021/11/08 10:27:23;;;;;;;14.15;6.72;;;;;;;;;;5054414;28;20021;-58
2021/11/08 10:29:50;;;;;;;14.90;6.18;;;;;;;;;;5054509;28;20461;-58
2021/11/08 10:32:17;;;;;;;13.70;5.78;;;;;;;;;;5034794;28;20026;-57
2021/11/08 10:34:56;;;;;;;16.35;6.45;;;;;;;;;;5034254;28;20025;-57
2021/11/08 10:37:24;;;;;;;11.07;7.27;;;;;;;;;;5034417;28;20112;-53
2021/11/08 10:39:50;;;;;;;13.45;7.20;;;;;;;;;;5034917;28;20032;-56
2021/11/08 10:42:21;;;;;;;14.15;6.93;;;;;;;;;;5054175;28;20029;-56
2021/11/08 10:44:47;;;;;;;12.65;7.25;;;;;;;;;;5054422;28;20040;-52
2021/11/08 10:47:13;;;;;;;12.20;7.28;;;;;;;;;;5054153;28;20074;-57
2021/11/08 10:49:42;;;;;;;13.65;6.80;;;;;;;;;;5054336;28;20036;-57
2021/11/08 10:52:08;;;;;;;14.70;5.93;;;;;;;;;;5054345;28;20414;-55
2021/11/08 10:54:38;;;;;;;13.05;8.07;;;;;;;;;;5054409;28;20374;-57
2021/11/08 10:57:12;;;;;;;12.73;8.52;;;;;;;;;;5053676;28;20104;-56
2021/11/08 10:59:44;;;;;;;8.88;7.00;;;;;;;;;;5054216;28;20039;-57
2021/11/08 11:02:12;;;;;;;14.73;6.50;;;;;;;;;;5054578;28;20029;-55
2021/11/08 11:04:46;;;;;;;11.93;7.22;;;;;;;;;;5053774;28;20536;-57
2021/11/08 11:07:13;;;;;;;10.82;8.13;;;;;;;;;;5054176;28;20407;-56
2021/11/08 11:09:39;;;;;;;12.45;7.75;;;;;;;;;;5054009;28;20029;-57
2021/11/08 11:12:11;;;;;;;9.88;7.57;;;;;;;;;;5054331;28;20108;-56
2021/11/08 11:14:38;;;;;;;15.32;8.90;;;;;;;;;;5053933;28;20036;-56
2021/11/08 11:17:09;;;;;;;13.23;8.20;;;;;;;;;;5053544;28;20397;-57
2021/11/08 11:19:35;;;;;;;13.82;7.90;;;;;;;;;;5054071;28;20048;-57
2021/11/08 11:22:04;;;;;;;15.60;8.23;;;;;;;;;;5053865;28;20063;-55
2021/11/08 11:24:46;;;;;;;11.57;8.43;;;;;;;;;;5053576;28;20035;-55
2021/11/08 11:27:16;;;;;;;13.55;6.82;;;;;;;;;;5053314;28;20052;-57
2021/11/08 11:29:42;;;;;;;16.27;6.18;;;;;;;;;;5053516;28;20059;-57
2021/11/08 11:32:26;;;;;;;7.80;5.93;;;;;;;;;;5053633;28;20049;-57
2021/11/08 11:34:53;;;;;;;15.25;8.13;;;;;;;;;;5053598;28;20021;-51
2021/11/08 11:37:21;;;;;;;7.53;5.68;;;;;;;;;;5053231;28;20033;-55
2021/11/08 11:39:47;;;;;;;10.57;4.93;;;;;;;;;;5053680;28;20025;-55
2021/11/08 11:42:13;;;;;;;8.15;5.15;;;;;;;;;;5053396;28;20091;-58
2021/11/08 11:44:40;;;;;;;10.80;5.57;;;;;;;;;;5053129;28;20032;-57
2021/11/08 11:47:13;;;;;;;8.07;5.20;;;;;;;;;;5051555;28;20021;-56
2021/11/08 11:49:40;;;;;;;7.38;4.78;;;;;;;;;;5053490;28;20036;-56
2021/11/08 11:52:06;;;;;;;11.38;4.57;;;;;;;;;;5053518;28;20028;-57
2021/11/08 11:54:33;;;;;;;4.65;3.88;;;;;;;;;;5053190;28;20021;-55
2021/11/08 11:57:00;;;;;;;11.25;4.85;;;;;;;;;;5052588;28;20032;-58
2021/11/08 11:59:26;;;;;;;16.08;5.43;;;;;;;;;;5053126;28;20029;-57
2021/11/08 12:01:52;;;;;;;10.20;4.00;;;;;;;;;;5052824;28;20520;-58
2021/11/08 12:04:18;;;;;;;8.93;4.70;;;;;;;;;;5052829;28;20037;-57
2021/11/08 12:06:46;;;;;;;15.23;5.07;;;;;;;;;;5052363;28;20497;-58
2021/11/08 12:09:16;;;;;;;13.05;4.47;;;;;;;;;;5053194;28;20052;-57
2021/11/08 12:11:43;;;;;;;9.52;4.40;;;;;;;;;;5052882;28;20115;-58
2021/11/08 12:14:12;;;;;;;8.02;4.60;;;;;;;;;;5052707;28;20490;-58
2021/11/08 12:16:48;;;;;;;13.48;5.35;;;;;;;;;;5051969;28;20025;-58
2021/11/08 12:19:17;;;;;;;14.82;4.85;;;;;;;;;;5053173;28;20025;-58
2021/11/08 12:21:43;;;;;;;9.98;4.13;;;;;;;;;;5052859;28;20029;-58
2021/11/08 12:24:23;;;;;;;7.43;4.78;;;;;;;;;;5052399;28;20023;-58
2021/11/08 12:27:03;;;;;;;11.73;4.68;;;;;;;;;;5052290;28;20095;-58
2021/11/08 12:29:29;;;;;;;16.17;3.80;;;;;;;;;;5052860;28;20025;-58
2021/11/08 12:32:09;;;;;;;11.27;4.25;;;;;;;;;;5053020;28;20094;-56
2021/11/08 12:35:05;;;;;;;8.98;3.90;;;;;;;;;;5050455;28;20100;-56
2021/11/08 12:37:38;;;;;;;9.25;4.47;;;;;;;;;;5051090;28;20072;-57
2021/11/08 12:40:04;;;;;;;9.95;5.40;;;;;;;;;;5052380;28;20037;-58
2021/11/08 12:42:42;;;;;;;8.55;3.67;;;;;;;;;;5052466;28;20029;-57
2021/11/08 12:45:10;;;;;;;12.80;4.47;;;;;;;;;;5052004;28;20413;-58
2021/11/08 12:47:36;;;;;;;6.82;2.95;;;;;;;;;;5051441;28;20378;-57
2021/11/08 12:50:02;;;;;;;6.28;2.75;;;;;;;;;;5051097;28;20033;-57
2021/11/08 12:52:31;;;;;;;10.32;3.42;;;;;;;;;;5052290;28;20360;-56
2021/11/08 12:55:03;;;;;;;6.00;2.55;;;;;;;;;;5051967;28;20177;-57
2021/11/08 12:57:29;;;;;;;3.97;3.03;;;;;;;;;;5051718;28;20447;-56
2021/11/08 12:59:55;;;;;;;8.82;3.42;;;;;;;;;;5052156;28;20029;-58
2021/11/08 13:02:31;;;;;;;7.80;3.55;;;;;;;;;;5052272;28;20093;-57
2021/11/08 13:04:58;;;;;;;12.38;2.63;;;;;;;;;;5051909;28;20061;-58
2021/11/08 13:07:27;;;;;;;7.50;3.30;;;;;;;;;;5051248;28;20377;-56
2021/11/08 13:09:56;;;;;;;6.60;3.17;;;;;;;;;;5051593;28;20068;-57
2021/11/08 13:12:22;;;;;;;8.63;3.28;;;;;;;;;;5052144;28;20495;-57
2021/11/08 13:14:59;;;;;;;13.88;3.60;;;;;;;;;;5052163;28;20091;-57
2021/11/08 13:17:26;;;;;;;8.05;2.45;;;;;;;;;;5051437;28;20024;-56
2021/11/08 13:19:53;;;;;;;11.50;3.15;;;;;;;;;;5052174;28;20032;-56
2021/11/08 13:22:29;;;;;;;11.32;4.20;;;;;;;;;;5052003;28;20351;-57
2021/11/08 13:25:04;;;;;;;8.07;2.53;;;;;;;;;;5051774;28;20029;-57
2021/11/08 13:27:30;;;;;;;6.45;2.72;;;;;;;;;;5051334;28;20040;-57
2021/11/08 13:29:57;;;;;;;7.47;2.42;;;;;;;;;;5051998;28;20112;-58
2021/11/08 13:32:23;;;;;;;8.35;2.88;;;;;;;;;;5051701;28;20029;-58
2021/11/08 13:34:50;;;;;;;4.88;2.35;;;;;;;;;;5051690;28;20159;-57
2021/11/08 13:37:16;;;;;;;9.90;3.00;;;;;;;;;;5051246;28;20056;-57
2021/11/08 13:39:45;;;;;;;9.40;2.97;;;;;;;;;;5051745;28;20029;-56
2021/11/08 13:42:18;;;;;;;10.52;2.97;;;;;;;;;;5051876;28;20031;-58
2021/11/08 13:44:45;;;;;;;12.18;3.88;;;;;;;;;;5051671;28;20052;-57
2021/11/08 13:47:11;;;;;;;4.00;1.70;;;;;;;;;;5051048;28;20029;-58
2021/11/08 13:49:36;;;;;;;3.67;2.17;;;;;;;;;;5052042;28;20039;-55
2021/11/08 13:52:03;;;;;;;4.30;2.03;;;;;;;;;;5051433;28;20078;-53
2021/11/08 13:54:33;;;;;;;4.07;2.55;;;;;;;;;;5051612;28;20037;-55
2021/11/08 13:57:07;;;;;;;14.55;3.40;;;;;;;;;;5050995;28;20378;-56
2021/11/08 13:59:35;;;;;;;4.57;2.65;;;;;;;;;;5051479;28;20529;-55
2021/11/08 14:02:00;;;;;;;7.13;2.88;;;;;;;;;;5051631;28;20021;-55
2021/11/08 14:04:34;;;;;;;11.25;2.88;;;;;;;;;;5051361;28;20032;-54
2021/11/08 14:07:00;;;;;;;7.35;2.15;;;;;;;;;;5030565;28;20099;-55
2021/11/08 14:09:27;;;;;;;4.82;3.65;;;;;;;;;;5032219;28;20064;-54
2021/11/08 14:11:54;;;;;;;5.18;2.85;;;;;;;;;;5035197;28;20021;-56
2021/11/08 14:14:22;;;;;;;6.25;2.70;;;;;;;;;;5035278;28;20101;-54
2021/11/08 14:16:49;;;;;;;6.93;2.45;;;;;;;;;;5052947;28;20036;-52
2021/11/08 14:19:16;;;;;;;5.03;1.65;;;;;;;;;;5054658;28;20434;-56
2021/11/08 14:21:43;;;;;;;4.15;1.73;;;;;;;;;;5055236;28;20025;-51
2021/11/08 14:24:13;;;;;;;8.05;2.45;;;;;;;;;;5055487;28;20079;-55
2021/11/08 14:26:42;;;;;;;10.02;2.50;;;;;;;;;;5054011;28;20029;-55
2021/11/08 14:29:37;;;;;;;11.45;3.13;;;;;;;;;;5055113;28;20099;-56
2021/11/08 14:32:05;;;;;;;6.20;1.85;;;;;;;;;;5045719;28;20090;-54
2021/11/08 14:34:35;;;;;;;9.43;2.55;;;;;;;;;;5054870;28;20024;-53
2021/11/08 14:37:08;;;;;;;13.25;3.70;;;;;;;;;;5054005;28;20033;-52
2021/11/08 14:39:39;;;;;;;6.72;3.00;;;;;;;;;;5054895;28;20114;-51
2021/11/08 14:42:05;;;;;;;8.07;3.03;;;;;;;;;;5054563;28;20025;-54
2021/11/08 14:44:37;;;;;;;4.63;2.30;;;;;;;;;;5054707;28;20162;-53
2021/11/08 14:47:13;;;;;;;5.68;1.80;;;;;;;;;;5054232;28;20052;-52
2021/11/08 14:49:39;;;;;;;3.97;2.15;;;;;;;;;;5054538;28;20037;-52
2021/11/08 14:52:07;;;;;;;7.38;3.00;;;;;;;;;;5054498;28;20028;-49
2021/11/08 14:54:34;;;;;;;4.93;2.67;;;;;;;;;;5053982;28;20029;-52
2021/11/08 14:57:01;;;;;;;9.30;2.45;;;;;;;;;;5053794;28;20369;-55
2021/11/08 14:59:35;;;;;;;6.97;2.78;;;;;;;;;;5054390;28;20471;-53
2021/11/08 15:02:04;;;;;;;4.80;2.10;;;;;;;;;;5054410;28;20033;-53
2021/11/08 15:04:30;;;;;;;4.95;2.30;;;;;;;;;;5038057;28;20027;-57
2021/11/08 15:06:56;;;;;;;9.93;3.20;;;;;;;;;;5053495;28;20024;-53
2021/11/08 15:09:24;;;;;;;7.97;3.88;;;;;;;;;;5054560;28;20048;-53
2021/11/08 15:11:50;;;;;;;6.30;2.60;;;;;;;;;;5054254;28;20059;-51
2021/11/08 15:14:20;;;;;;;8.50;3.28;;;;;;;;;;5053967;28;20409;-54
2021/11/08 15:16:48;;;;;;;5.63;2.70;;;;;;;;;;5053334;28;20032;-52
2021/11/08 15:19:15;;;;;;;8.05;3.25;;;;;;;;;;5054140;28;20033;-50
2021/11/08 15:21:41;;;;;;;11.13;3.65;;;;;;;;;;5053680;28;20068;-52
2021/11/08 15:24:08;;;;;;;5.70;3.58;;;;;;;;;;5053897;28;20043;-54
2021/11/08 15:26:34;;;;;;;7.43;3.42;;;;;;;;;;5052038;28;20036;-51
2021/11/08 15:29:08;;;;;;;10.30;4.13;;;;;;;;;;5053935;28;20025;-51
2021/11/08 15:31:34;;;;;;;10.50;3.97;;;;;;;;;;5053841;28;20372;-55
2021/11/08 15:34:09;;;;;;;9.10;3.35;;;;;;;;;;5053668;28;20100;-54
2021/11/08 15:36:39;;;;;;;6.40;3.72;;;;;;;;;;5053132;28;20494;-52
2021/11/08 15:39:07;;;;;;;6.88;4.13;;;;;;;;;;5053871;28;20025;-56
2021/11/08 15:41:33;;;;;;;9.55;3.33;;;;;;;;;;5053159;28;20044;-52
2021/11/08 15:43:59;;;;;;;12.90;3.17;;;;;;;;;;5053437;28;20032;-53
2021/11/08 15:46:25;;;;;;;11.90;3.83;;;;;;;;;;5052681;28;20101;-56
2021/11/08 15:48:53;;;;;;;4.90;2.63;;;;;;;;;;5053296;28;20020;-56
2021/11/08 15:51:20;;;;;;;8.55;3.08;;;;;;;;;;5051911;28;20033;-53
2021/11/08 15:53:46;;;;;;;8.07;3.45;;;;;;;;;;5053685;28;20112;-55
2021/11/08 15:56:12;;;;;;;4.97;3.05;;;;;;;;;;5052979;28;20477;-53
2021/11/08 15:58:38;;;;;;;6.68;3.03;;;;;;;;;;5053422;28;20021;-54
2021/11/08 16:01:08;;;;;;;9.98;3.97;;;;;;;;;;5052932;28;20108;-55
2021/11/08 16:03:34;;;;;;;5.38;2.47;;;;;;;;;;5052660;28;20067;-54
2021/11/08 16:06:00;;;;;;;5.78;3.17;;;;;;;;;;5053163;28;20028;-57
2021/11/08 16:08:26;;;;;;;13.50;3.63;;;;;;;;;;5052462;28;20033;-54
2021/11/08 16:10:52;;;;;;;12.30;4.22;;;;;;;;;;5052926;28;20033;-54
2021/11/08 16:13:18;;;;;;;7.53;3.42;;;;;;;;;;5053047;28;20039;-55
2021/11/08 16:15:47;;;;;;;6.15;3.22;;;;;;;;;;5053011;28;20094;-56
2021/11/08 16:18:13;;;;;;;6.60;3.53;;;;;;;;;;5052724;28;20103;-54
2021/11/08 16:20:40;;;;;;;8.70;4.97;;;;;;;;;;5052876;28;20040;-56
2021/11/08 16:23:06;;;;;;;6.60;4.03;;;;;;;;;;5052734;28;20057;-54
2021/11/08 16:25:34;;;;;;;7.38;4.32;;;;;;;;;;5052870;28;20029;-56
2021/11/08 16:28:00;;;;;;;8.55;4.47;;;;;;;;;;5051751;28;20514;-56